createdAt,value
2019-01-31T00:00:10.392Z,2.50
2019-01-31T00:02:38.769Z,4.40
2019-01-31T00:05:07.129Z,4.10
2019-01-31T00:07:35.508Z,4.20
2019-01-31T00:10:03.864Z,4.53
2019-01-31T00:12:30.468Z,2.93
2019-01-31T00:14:58.820Z,2.03
2019-01-31T00:17:25.297Z,1.90
2019-01-31T00:19:53.547Z,3.23
2019-01-31T00:22:21.919Z,3.47
2019-01-31T00:24:50.302Z,2.67
2019-01-31T00:27:19.035Z,5.77
2019-01-31T00:29:47.696Z,2.33
2019-01-31T00:32:16.095Z,2.10
2019-01-31T00:34:42.462Z,2.63
2019-01-31T00:37:10.847Z,4.03
2019-01-31T00:39:37.423Z,4.40
2019-01-31T00:42:05.672Z,4.67
2019-01-31T00:44:34.035Z,3.40
2019-01-31T00:47:02.389Z,5.60
2019-01-31T00:49:30.755Z,3.80
2019-01-31T00:51:59.106Z,3.57
2019-01-31T00:54:27.463Z,3.70
2019-01-31T00:56:55.814Z,2.83
2019-01-31T00:59:24.199Z,2.50
2019-01-31T01:01:52.552Z,4.93
2019-01-31T01:04:20.919Z,6.23
2019-01-31T01:06:47.279Z,2.37
2019-01-31T01:09:18.636Z,5.83
2019-01-31T01:11:46.991Z,5.07
2019-01-31T01:14:15.380Z,3.97
2019-01-31T01:16:43.748Z,2.23
2019-01-31T01:19:12.395Z,5.77
2019-01-31T01:21:40.748Z,4.33
2019-01-31T01:24:09.059Z,4.17
2019-01-31T01:26:40.425Z,3.37
2019-01-31T01:29:08.822Z,6.43
2019-01-31T01:31:36.191Z,6.00
2019-01-31T01:34:04.542Z,4.27
2019-01-31T01:36:32.973Z,3.87
2019-01-31T01:39:01.326Z,2.60
2019-01-31T01:41:29.691Z,4.37
2019-01-31T01:44:04.254Z,5.40
2019-01-31T01:46:32.620Z,5.33
2019-01-31T01:49:00.971Z,4.30
2019-01-31T01:51:29.257Z,3.07
2019-01-31T01:53:57.607Z,7.57
2019-01-31T01:56:25.983Z,3.97
2019-01-31T01:58:53.442Z,2.30
2019-01-31T02:01:21.807Z,5.07
2019-01-31T02:03:50.071Z,2.53
2019-01-31T02:06:18.453Z,5.73
2019-01-31T02:08:46.897Z,6.13
2019-01-31T02:11:15.267Z,6.77
2019-01-31T02:13:43.616Z,4.60
2019-01-31T02:16:12.034Z,5.53
2019-01-31T02:18:40.460Z,3.47
2019-01-31T02:21:08.771Z,6.17
2019-01-31T02:23:35.241Z,3.03
2019-01-31T02:26:03.581Z,5.83
2019-01-31T02:28:31.954Z,4.03
2019-01-31T02:31:00.320Z,4.07
2019-01-31T02:33:28.761Z,4.13
2019-01-31T02:35:57.200Z,3.13
2019-01-31T02:38:25.558Z,2.97
2019-01-31T02:40:52.034Z,4.23
2019-01-31T02:43:20.414Z,4.67
2019-01-31T02:45:47.898Z,2.83
2019-01-31T02:48:18.097Z,3.43
2019-01-31T02:50:45.553Z,4.83
2019-01-31T02:53:13.933Z,5.40
2019-01-31T02:55:42.284Z,3.03
2019-01-31T02:58:10.555Z,4.40
2019-01-31T03:00:38.917Z,3.20
2019-01-31T03:03:07.288Z,3.40
2019-01-31T03:05:33.864Z,6.27
2019-01-31T03:08:02.267Z,5.90
2019-01-31T03:10:30.615Z,2.40
2019-01-31T03:12:58.990Z,3.60
2019-01-31T03:15:27.262Z,6.23
2019-01-31T03:17:55.647Z,3.90
2019-01-31T03:20:24.010Z,3.37
2019-01-31T03:22:52.379Z,3.90
2019-01-31T03:25:20.743Z,3.70
2019-01-31T03:27:49.007Z,3.43
2019-01-31T03:30:17.389Z,5.67
2019-01-31T03:32:45.946Z,4.97
2019-01-31T03:35:14.339Z,5.20
2019-01-31T03:37:42.730Z,4.70
2019-01-31T03:40:11.119Z,4.67
2019-01-31T03:42:39.379Z,6.20
2019-01-31T03:45:07.743Z,5.50
2019-01-31T03:47:36.103Z,2.67
2019-01-31T03:50:07.483Z,8.27
2019-01-31T03:52:35.833Z,4.50
2019-01-31T03:55:04.191Z,7.23
2019-01-31T03:57:32.543Z,7.70
2019-01-31T04:00:00.926Z,9.00
2019-01-31T04:02:29.283Z,6.77
2019-01-31T04:04:57.647Z,11.97
2019-01-31T04:07:24.047Z,11.77
2019-01-31T04:09:50.514Z,12.53
2019-01-31T04:12:16.965Z,11.30
2019-01-31T04:14:43.435Z,10.67
2019-01-31T04:17:09.890Z,10.03
2019-01-31T04:19:36.367Z,9.30
2019-01-31T04:22:02.816Z,8.20
2019-01-31T04:24:29.199Z,9.13
2019-01-31T04:26:55.774Z,14.97
2019-01-31T04:29:22.220Z,8.93
2019-01-31T04:31:48.704Z,7.87
2019-01-31T04:34:15.163Z,10.00
2019-01-31T04:36:41.687Z,6.53
2019-01-31T04:39:08.247Z,7.70
2019-01-31T04:41:34.621Z,6.23
2019-01-31T04:44:01.073Z,9.57
2019-01-31T04:46:27.673Z,10.50
2019-01-31T04:48:54.218Z,12.67
2019-01-31T04:51:20.704Z,7.07
2019-01-31T04:53:47.148Z,9.30
2019-01-31T04:56:13.544Z,7.40
2019-01-31T04:58:39.926Z,7.67
2019-01-31T05:01:06.515Z,6.57
2019-01-31T05:03:33.143Z,6.90
2019-01-31T05:05:59.533Z,6.13
2019-01-31T05:08:26.105Z,8.33
2019-01-31T05:10:52.567Z,7.23
2019-01-31T05:13:19.035Z,7.70
2019-01-31T05:15:45.510Z,5.13
2019-01-31T05:18:12.063Z,7.13
2019-01-31T05:20:38.518Z,8.50
2019-01-31T05:23:05.107Z,6.00
2019-01-31T05:25:31.667Z,5.80
2019-01-31T05:27:58.137Z,5.73
2019-01-31T05:30:24.687Z,7.03
2019-01-31T05:32:51.285Z,8.10
2019-01-31T05:35:17.739Z,5.83
2019-01-31T05:37:44.139Z,4.70
2019-01-31T05:40:11.692Z,5.80
2019-01-31T05:42:38.155Z,5.33
2019-01-31T05:45:06.433Z,7.50
2019-01-31T05:47:33.003Z,7.03
2019-01-31T05:49:59.361Z,7.53
2019-01-31T05:52:25.916Z,5.03
2019-01-31T05:54:52.382Z,5.50
2019-01-31T05:57:18.838Z,6.50
2019-01-31T05:59:45.325Z,5.93
2019-01-31T06:02:11.710Z,7.83
2019-01-31T06:04:38.279Z,3.47
2019-01-31T06:07:11.240Z,6.73
2019-01-31T06:09:33.214Z,4.57
2019-01-31T06:11:59.651Z,6.83
2019-01-31T06:14:26.125Z,4.40
2019-01-31T06:16:52.677Z,6.63
2019-01-31T06:19:19.070Z,4.90
2019-01-31T06:21:45.514Z,7.30
2019-01-31T06:24:12.118Z,5.03
2019-01-31T06:26:38.493Z,11.17
2019-01-31T06:29:04.974Z,9.43
2019-01-31T06:31:31.418Z,14.10
2019-01-31T06:33:57.894Z,5.77
2019-01-31T06:36:24.283Z,5.33
2019-01-31T06:38:50.751Z,8.67
2019-01-31T06:41:18.838Z,4.47
2019-01-31T06:43:45.488Z,5.43
2019-01-31T06:46:11.944Z,9.17
2019-01-31T06:48:38.493Z,7.60
2019-01-31T06:51:04.976Z,7.97
2019-01-31T06:53:31.578Z,6.13
2019-01-31T06:55:58.047Z,8.83
2019-01-31T06:58:24.607Z,10.20
2019-01-31T07:00:51.080Z,5.70
2019-01-31T07:03:17.440Z,5.23
2019-01-31T07:05:43.918Z,6.10
2019-01-31T07:08:10.477Z,7.00
2019-01-31T07:10:36.950Z,5.23
2019-01-31T07:13:03.516Z,6.97
2019-01-31T07:15:30.002Z,9.00
2019-01-31T07:17:56.543Z,7.27
2019-01-31T07:20:23.019Z,5.70
2019-01-31T07:22:49.492Z,7.60
2019-01-31T07:25:17.171Z,5.20
2019-01-31T07:27:43.562Z,5.73
2019-01-31T07:30:11.957Z,5.63
2019-01-31T07:32:38.513Z,9.87
2019-01-31T07:35:06.816Z,7.70
2019-01-31T07:37:33.303Z,9.53
2019-01-31T07:39:59.797Z,5.37
2019-01-31T07:42:26.245Z,7.10
2019-01-31T07:44:52.623Z,9.60
2019-01-31T07:47:19.095Z,7.00
2019-01-31T07:49:45.560Z,5.80
2019-01-31T07:52:12.023Z,5.00
2019-01-31T07:54:38.503Z,6.13
2019-01-31T07:57:04.863Z,7.67
2019-01-31T07:59:31.327Z,9.30
2019-01-31T08:01:57.696Z,7.50
2019-01-31T08:04:24.149Z,9.00
2019-01-31T08:06:50.726Z,6.80
2019-01-31T08:09:17.187Z,6.03
2019-01-31T08:11:52.288Z,6.20
2019-01-31T08:14:12.116Z,7.63
2019-01-31T08:16:38.600Z,7.17
2019-01-31T08:19:05.171Z,4.40
2019-01-31T08:21:31.639Z,4.83
2019-01-31T08:23:58.027Z,8.57
2019-01-31T08:26:24.506Z,5.33
2019-01-31T08:28:50.950Z,4.53
2019-01-31T08:31:17.333Z,3.87
2019-01-31T08:33:43.905Z,5.43
2019-01-31T08:36:10.342Z,5.93
2019-01-31T08:38:36.878Z,4.23
2019-01-31T08:41:03.288Z,6.50
2019-01-31T08:43:29.848Z,3.63
2019-01-31T08:45:56.394Z,4.10
2019-01-31T08:48:22.892Z,3.60
2019-01-31T08:50:49.438Z,6.70
2019-01-31T08:53:15.902Z,3.47
2019-01-31T08:55:42.358Z,8.17
2019-01-31T08:58:08.823Z,7.10
2019-01-31T09:00:35.310Z,9.30
2019-01-31T09:03:01.849Z,4.17
2019-01-31T09:05:28.299Z,4.37
2019-01-31T09:07:54.763Z,6.03
2019-01-31T09:10:23.124Z,5.27
2019-01-31T09:12:49.651Z,4.63
2019-01-31T09:15:17.805Z,4.67
2019-01-31T09:17:44.276Z,6.20
2019-01-31T09:20:12.259Z,9.90
2019-01-31T09:22:40.234Z,6.77
2019-01-31T09:25:08.591Z,4.23
2019-01-31T09:27:36.047Z,4.33
2019-01-31T09:30:04.428Z,3.63
2019-01-31T09:32:32.800Z,4.63
2019-01-31T09:35:01.177Z,5.07
2019-01-31T09:37:29.571Z,5.13
2019-01-31T09:39:57.934Z,5.93
2019-01-31T09:42:26.717Z,5.07
2019-01-31T09:44:52.833Z,6.43
2019-01-31T09:47:21.304Z,4.37
2019-01-31T09:49:49.563Z,4.83
2019-01-31T09:52:17.915Z,4.67
2019-01-31T09:54:46.185Z,3.30
2019-01-31T09:57:14.443Z,5.87
2019-01-31T09:59:42.711Z,4.50
2019-01-31T10:02:11.060Z,5.47
2019-01-31T10:04:39.478Z,3.93
2019-01-31T10:07:06.044Z,6.03
2019-01-31T10:09:34.309Z,2.83
2019-01-31T10:12:02.615Z,4.40
2019-01-31T10:14:31.035Z,5.23
2019-01-31T10:16:59.389Z,3.27
2019-01-31T10:19:27.763Z,6.50
2019-01-31T10:21:56.146Z,3.97
2019-01-31T10:24:24.455Z,5.30
2019-01-31T10:26:51.988Z,4.70
2019-01-31T10:29:20.407Z,3.33
2019-01-31T10:31:48.661Z,5.50
2019-01-31T10:34:16.934Z,4.03
2019-01-31T10:36:45.319Z,5.07
2019-01-31T10:39:12.790Z,5.20
2019-01-31T10:41:41.154Z,4.60
2019-01-31T10:44:09.510Z,4.47
2019-01-31T10:46:38.010Z,3.80
2019-01-31T10:49:06.355Z,3.72
2019-01-31T10:51:33.843Z,4.12
2019-01-31T10:54:02.192Z,5.17
2019-01-31T10:56:30.466Z,4.83
2019-01-31T10:58:58.853Z,3.73
2019-01-31T11:01:27.147Z,3.60
2019-01-31T11:03:53.633Z,3.73
2019-01-31T11:06:20.153Z,7.17
2019-01-31T11:08:51.447Z,7.20
2019-01-31T11:11:19.815Z,2.83
2019-01-31T11:13:48.062Z,3.87
2019-01-31T11:16:16.427Z,2.90
2019-01-31T11:18:44.779Z,2.87
2019-01-31T11:21:13.150Z,3.43
2019-01-31T11:23:41.516Z,2.73
2019-01-31T11:26:12.799Z,2.87
2019-01-31T11:28:41.160Z,3.50
2019-01-31T11:31:09.544Z,4.13
2019-01-31T11:33:37.891Z,5.80
2019-01-31T11:36:04.471Z,2.77
2019-01-31T11:38:32.835Z,3.40
2019-01-31T11:41:01.244Z,3.12
2019-01-31T11:43:29.533Z,4.12
2019-01-31T11:45:57.889Z,2.67
2019-01-31T11:48:26.301Z,3.67
2019-01-31T11:50:54.548Z,2.98
2019-01-31T11:53:22.820Z,2.20
2019-01-31T11:55:51.175Z,5.42
2019-01-31T11:58:19.559Z,4.03
2019-01-31T12:00:45.927Z,3.12
2019-01-31T12:03:12.404Z,2.07
2019-01-31T12:05:38.953Z,2.80
2019-01-31T12:08:05.620Z,4.47
2019-01-31T12:10:32.062Z,2.40
2019-01-31T12:12:58.748Z,2.90
2019-01-31T12:15:25.104Z,5.10
2019-01-31T12:17:51.495Z,3.43
2019-01-31T12:20:17.956Z,4.93
2019-01-31T12:22:44.432Z,4.63
2019-01-31T12:25:10.990Z,2.57
2019-01-31T12:27:37.459Z,3.53
2019-01-31T12:30:06.743Z,3.53
2019-01-31T12:32:33.211Z,3.47
2019-01-31T12:34:59.758Z,1.13
2019-01-31T12:37:26.480Z,3.00
2019-01-31T12:39:53.033Z,3.47
2019-01-31T12:42:19.590Z,2.37
2019-01-31T12:44:46.063Z,2.23
2019-01-31T12:47:12.614Z,2.90
2019-01-31T12:49:39.088Z,2.40
2019-01-31T12:52:05.547Z,3.30
2019-01-31T12:54:32.019Z,2.20
2019-01-31T12:56:58.466Z,2.47
2019-01-31T12:59:25.052Z,2.15
2019-01-31T13:01:52.064Z,1.40
2019-01-31T13:04:20.462Z,3.70
2019-01-31T13:06:46.895Z,3.90
2019-01-31T13:09:13.487Z,2.87
2019-01-31T13:11:39.938Z,5.00
2019-01-31T13:14:06.429Z,2.35
2019-01-31T13:16:32.867Z,5.87
2019-01-31T13:18:59.355Z,2.02
2019-01-31T13:21:25.916Z,4.67
2019-01-31T13:23:52.383Z,3.85
2019-01-31T13:26:19.031Z,2.22
2019-01-31T13:28:45.411Z,2.75
2019-01-31T13:31:11.872Z,1.70
2019-01-31T13:33:38.421Z,1.80
2019-01-31T13:36:06.687Z,2.22
2019-01-31T13:38:33.282Z,1.82
2019-01-31T13:40:59.673Z,1.75
2019-01-31T13:43:26.230Z,3.92
2019-01-31T13:45:53.025Z,4.25
2019-01-31T13:48:19.480Z,3.17
2019-01-31T13:50:45.963Z,2.00
2019-01-31T13:53:12.407Z,2.10
2019-01-31T13:55:39.193Z,3.30
2019-01-31T13:58:06.026Z,3.33
2019-01-31T14:00:32.668Z,2.20
2019-01-31T14:02:59.124Z,2.53
2019-01-31T14:05:25.644Z,4.03
2019-01-31T14:07:52.251Z,2.80
2019-01-31T14:10:20.067Z,1.70
2019-01-31T14:12:46.627Z,1.43
2019-01-31T14:15:15.026Z,3.83
2019-01-31T14:17:41.581Z,6.47
2019-01-31T14:20:09.948Z,4.17
2019-01-31T14:22:42.862Z,7.43
2019-01-31T14:25:05.150Z,5.33
2019-01-31T14:27:31.599Z,2.33
2019-01-31T14:29:58.163Z,2.70
2019-01-31T14:32:25.030Z,4.57
2019-01-31T14:34:51.490Z,2.93
2019-01-31T14:37:18.019Z,3.10
2019-01-31T14:39:44.370Z,3.67
2019-01-31T14:42:10.839Z,2.87
2019-01-31T14:44:37.603Z,2.80
2019-01-31T14:47:04.079Z,2.80
2019-01-31T14:49:30.541Z,2.53
2019-01-31T14:51:57.108Z,3.43
2019-01-31T14:54:23.674Z,2.10
2019-01-31T14:56:50.068Z,3.87
2019-01-31T14:59:16.545Z,1.83
2019-01-31T15:01:43.022Z,1.30
2019-01-31T15:04:09.395Z,3.37
2019-01-31T15:06:35.979Z,1.60
2019-01-31T15:09:04.331Z,2.57
2019-01-31T15:11:30.791Z,2.43
2019-01-31T15:13:57.243Z,2.37
2019-01-31T15:16:23.811Z,2.80
2019-01-31T15:18:50.364Z,1.63
2019-01-31T15:21:17.135Z,4.03
2019-01-31T15:23:43.588Z,2.03
2019-01-31T15:26:10.063Z,2.10
2019-01-31T15:28:36.403Z,3.23
2019-01-31T15:31:03.060Z,2.20
2019-01-31T15:33:29.433Z,3.60
2019-01-31T15:35:55.990Z,4.37
2019-01-31T15:38:22.416Z,5.43
2019-01-31T15:40:48.876Z,1.80
2019-01-31T15:43:15.345Z,4.33
2019-01-31T15:45:41.999Z,3.87
2019-01-31T15:48:10.701Z,3.97
2019-01-31T15:50:37.556Z,8.47
2019-01-31T15:53:04.546Z,2.00
2019-01-31T15:55:30.899Z,3.53
2019-01-31T15:57:57.280Z,1.73
2019-01-31T16:00:27.140Z,2.47
2019-01-31T16:02:53.621Z,4.43
2019-01-31T16:05:20.073Z,2.63
2019-01-31T16:07:46.940Z,2.97
2019-01-31T16:10:13.622Z,3.60
2019-01-31T16:12:40.274Z,1.70
2019-01-31T16:15:08.755Z,4.73
2019-01-31T16:17:35.371Z,4.90
2019-01-31T16:20:02.347Z,5.10
2019-01-31T16:22:28.890Z,9.27
2019-01-31T16:24:55.358Z,14.83
2019-01-31T16:27:21.982Z,9.87
2019-01-31T16:29:48.551Z,3.83
2019-01-31T16:32:15.107Z,2.63
2019-01-31T16:34:41.578Z,1.80
2019-01-31T16:37:08.118Z,4.20
2019-01-31T16:39:34.541Z,14.90
2019-01-31T16:42:01.021Z,7.60
2019-01-31T16:44:27.495Z,4.67
2019-01-31T16:46:54.047Z,2.57
2019-01-31T16:49:20.431Z,4.80
2019-01-31T16:51:46.983Z,5.67
2019-01-31T16:54:13.444Z,6.00
2019-01-31T16:56:39.886Z,2.43
2019-01-31T16:59:06.459Z,2.17
2019-01-31T17:01:32.908Z,1.83
2019-01-31T17:03:59.371Z,1.50
2019-01-31T17:06:25.959Z,1.27
2019-01-31T17:08:52.419Z,2.63
2019-01-31T17:11:18.885Z,4.50
2019-01-31T17:13:45.248Z,2.43
2019-01-31T17:16:11.752Z,5.30
2019-01-31T17:18:38.179Z,10.97
2019-01-31T17:21:04.751Z,4.30
2019-01-31T17:23:31.209Z,1.93
2019-01-31T17:25:57.688Z,3.13
2019-01-31T17:28:24.140Z,2.87
2019-01-31T17:30:50.732Z,11.20
2019-01-31T17:33:17.184Z,7.97
2019-01-31T17:35:44.444Z,4.60
2019-01-31T17:38:10.946Z,11.57
2019-01-31T17:40:37.621Z,7.83
2019-01-31T17:43:06.580Z,6.50
2019-01-31T17:45:32.958Z,5.50
2019-01-31T17:47:59.547Z,2.73
2019-01-31T17:50:26.091Z,3.67
2019-01-31T17:52:52.454Z,2.90
2019-01-31T17:55:20.129Z,3.87
2019-01-31T17:57:46.613Z,5.97
2019-01-31T18:00:16.277Z,9.67
2019-01-31T18:02:45.413Z,8.87
2019-01-31T18:05:11.857Z,7.97
2019-01-31T18:07:38.415Z,8.70
2019-01-31T18:10:06.782Z,7.20
2019-01-31T18:12:33.277Z,9.83
2019-01-31T18:14:59.748Z,8.57
2019-01-31T18:17:26.148Z,5.67
2019-01-31T18:19:52.596Z,7.73
2019-01-31T18:22:19.067Z,5.03
2019-01-31T18:24:45.524Z,6.20
2019-01-31T18:27:11.914Z,9.17
2019-01-31T18:29:38.466Z,7.90
2019-01-31T18:32:04.996Z,6.87
2019-01-31T18:34:31.551Z,8.57
2019-01-31T18:36:58.157Z,11.53
2019-01-31T18:39:24.635Z,12.30
2019-01-31T18:41:51.087Z,8.93
2019-01-31T18:44:17.555Z,10.47
2019-01-31T18:46:44.041Z,5.70
2019-01-31T18:49:10.543Z,10.43
2019-01-31T18:51:37.083Z,118.03
2019-01-31T18:54:03.556Z,90.97
2019-01-31T18:56:30.111Z,35.70
2019-01-31T18:58:56.683Z,23.23
2019-01-31T19:01:23.044Z,19.73
2019-01-31T19:03:49.510Z,17.67
2019-01-31T19:06:16.155Z,20.40
2019-01-31T19:08:42.635Z,13.60
2019-01-31T19:11:09.095Z,16.53
2019-01-31T19:13:35.528Z,12.03
2019-01-31T19:16:05.200Z,15.50
2019-01-31T19:18:30.456Z,12.53
2019-01-31T19:20:56.799Z,12.73
2019-01-31T19:23:23.293Z,21.77
2019-01-31T19:25:49.735Z,24.90
2019-01-31T19:28:16.187Z,22.37
2019-01-31T19:30:42.665Z,25.57
2019-01-31T19:33:09.215Z,13.47
2019-01-31T19:35:35.922Z,18.50
2019-01-31T19:38:03.431Z,17.23
2019-01-31T19:40:31.116Z,15.33
2019-01-31T19:42:57.594Z,14.57
2019-01-31T19:45:25.951Z,16.30
2019-01-31T19:47:52.330Z,13.60
2019-01-31T19:50:18.891Z,17.00
2019-01-31T19:52:45.365Z,19.10
2019-01-31T19:55:11.845Z,18.57
2019-01-31T19:57:38.294Z,13.90
2019-01-31T20:00:06.675Z,18.57
2019-01-31T20:02:33.126Z,17.17
2019-01-31T20:04:59.624Z,16.43
2019-01-31T20:07:26.075Z,16.97
2019-01-31T20:09:52.542Z,13.83
2019-01-31T20:12:18.997Z,14.33
2019-01-31T20:14:45.475Z,17.80
2019-01-31T20:17:12.047Z,17.83
2019-01-31T20:19:38.699Z,26.70
2019-01-31T20:22:05.268Z,18.50
2019-01-31T20:24:31.725Z,15.73
2019-01-31T20:26:58.093Z,17.10
2019-01-31T20:29:24.563Z,21.97
2019-01-31T20:31:51.155Z,17.60
2019-01-31T20:34:17.673Z,16.33
2019-01-31T20:36:44.155Z,15.83
2019-01-31T20:39:10.660Z,17.63
2019-01-31T20:41:37.054Z,16.00
2019-01-31T20:44:03.504Z,18.70
2019-01-31T20:46:39.657Z,15.63
2019-01-31T20:48:58.549Z,21.43
2019-01-31T20:51:25.033Z,18.90
2019-01-31T20:53:51.492Z,21.40
2019-01-31T20:56:18.113Z,18.20
2019-01-31T20:58:47.037Z,19.30
2019-01-31T21:01:13.591Z,19.73
2019-01-31T21:03:40.047Z,18.50
2019-01-31T21:06:06.623Z,24.73
2019-01-31T21:08:34.473Z,19.73
2019-01-31T21:11:01.079Z,21.93
2019-01-31T21:13:27.740Z,21.97
2019-01-31T21:15:54.371Z,20.87
2019-01-31T21:18:21.179Z,20.97
2019-01-31T21:20:47.782Z,19.93
2019-01-31T21:23:14.410Z,17.80
2019-01-31T21:25:41.004Z,22.70
2019-01-31T21:28:07.492Z,23.60
2019-01-31T21:30:35.246Z,22.97
2019-01-31T21:33:01.814Z,23.57
2019-01-31T21:35:28.511Z,22.87
2019-01-31T21:37:55.231Z,20.63
2019-01-31T21:40:22.907Z,21.37
2019-01-31T21:42:49.391Z,20.13
2019-01-31T21:45:17.356Z,21.03
2019-01-31T21:47:43.943Z,22.53
2019-01-31T21:50:12.090Z,24.13
2019-01-31T21:52:38.483Z,24.53
2019-01-31T21:55:05.732Z,25.00
2019-01-31T21:57:32.372Z,21.37
2019-01-31T21:59:58.823Z,22.47
2019-01-31T22:02:25.306Z,20.43
2019-01-31T22:04:51.856Z,24.67
2019-01-31T22:07:18.455Z,21.60
2019-01-31T22:09:44.992Z,24.60
2019-01-31T22:12:11.540Z,25.67
2019-01-31T22:14:38.152Z,22.40
2019-01-31T22:17:14.195Z,22.47
2019-01-31T22:19:32.975Z,23.67
2019-01-31T22:21:59.553Z,31.53
2019-01-31T22:24:26.034Z,22.30
2019-01-31T22:26:52.905Z,22.23
2019-01-31T22:29:19.724Z,27.53
2019-01-31T22:31:46.449Z,19.50
2019-01-31T22:34:13.161Z,23.73
2019-01-31T22:36:39.625Z,23.30
2019-01-31T22:39:06.719Z,23.87
2019-01-31T22:41:33.290Z,20.60
2019-01-31T22:43:59.880Z,23.53
2019-01-31T22:46:26.342Z,19.80
2019-01-31T22:48:52.919Z,22.17
2019-01-31T22:51:19.595Z,19.23
2019-01-31T22:53:46.170Z,25.10
2019-01-31T22:56:12.810Z,21.60
2019-01-31T22:58:39.377Z,22.97
2019-01-31T23:01:09.551Z,23.07
2019-01-31T23:03:36.198Z,21.17
2019-01-31T23:06:03.482Z,20.03
2019-01-31T23:08:29.840Z,21.60
2019-01-31T23:10:56.419Z,22.70
2019-01-31T23:13:23.019Z,20.50
2019-01-31T23:15:49.708Z,21.63
2019-01-31T23:18:16.170Z,21.53
2019-01-31T23:20:44.454Z,20.17
2019-01-31T23:23:10.991Z,21.60
2019-01-31T23:25:40.192Z,21.20
2019-01-31T23:28:07.865Z,27.93
2019-01-31T23:30:34.515Z,20.73
2019-01-31T23:33:00.935Z,20.57
2019-01-31T23:35:27.595Z,21.80
2019-01-31T23:37:54.119Z,22.93
2019-01-31T23:40:20.780Z,21.60
2019-01-31T23:42:47.169Z,19.90
2019-01-31T23:45:14.353Z,23.33
2019-01-31T23:47:48.561Z,21.33
2019-01-31T23:50:10.873Z,21.13
2019-01-31T23:52:37.357Z,20.30
2019-01-31T23:55:05.703Z,24.20
2019-01-31T23:57:32.305Z,19.67
2019-01-31T23:59:58.670Z,19.87
